<?xml version="1.0" encoding="UTF-8" standalone="no" ?>
<gpx xmlns="http://www.topografix.com/GPX/1/1" xmlns:xsi="http://www.w3.org/2001/XMLSchema-instance" xsi:schemaLocation="http://www.topografix.com/GPX/1/1 http://www.topografix.com/GPX/1/1/gpx.xsd" version="1.1" creator="VisuGPX - https://www.visugpx.com">
  <metadata>
    <name>boucle villamblard 9km</name>
  </metadata>
  <trk>
    <name><![CDATA[randogps24-354]]></name>
    <extensions>
      <line xmlns="http://www.topografix.com/GPX/gpx_style/0/2">
        <color>0000FF</color>
        <width>4</width>
      </line>
    </extensions>
    <trkseg>
      <trkpt lat="45.02285" lon="0.54057">
        <ele>59.26</ele>
        <time>2017-04-16T12:04:37Z</time>
      </trkpt>
      <trkpt lat="45.02285" lon="0.54057">
        <ele>59.26</ele>
        <time>2017-04-16T12:04:37Z</time>
      </trkpt>
      <trkpt lat="45.02257" lon="0.54159">
        <ele>123.67</ele>
        <time>2017-04-16T12:06:54Z</time>
      </trkpt>
      <trkpt lat="45.02204" lon="0.54281">
        <ele>119.82</ele>
        <time>2017-04-16T12:08:35Z</time>
      </trkpt>
      <trkpt lat="45.02166" lon="0.54432">
        <ele>113.09</ele>
        <time>2017-04-16T12:09:59Z</time>
      </trkpt>
      <trkpt lat="45.02111" lon="0.54567">
        <ele>117.42</ele>
        <time>2017-04-16T12:11:22Z</time>
      </trkpt>
      <trkpt lat="45.02072" lon="0.54706">
        <ele>121.26</ele>
        <time>2017-04-16T12:12:40Z</time>
      </trkpt>
      <trkpt lat="45.02059" lon="0.54845">
        <ele>121.26</ele>
        <time>2017-04-16T12:14:01Z</time>
      </trkpt>
      <trkpt lat="45.02037" lon="0.5496">
        <ele>125.11</ele>
        <time>2017-04-16T12:19:33Z</time>
      </trkpt>
      <trkpt lat="45.01945" lon="0.54998">
        <ele>115.5</ele>
        <time>2017-04-16T12:20:58Z</time>
      </trkpt>
      <trkpt lat="45.01856" lon="0.55051">
        <ele>120.78</ele>
        <time>2017-04-16T12:25:52Z</time>
      </trkpt>
      <trkpt lat="45.01762" lon="0.55055">
        <ele>128.95</ele>
        <time>2017-04-16T12:27:53Z</time>
      </trkpt>
      <trkpt lat="45.01645" lon="0.55029">
        <ele>141.45</ele>
        <time>2017-04-16T12:29:53Z</time>
      </trkpt>
      <trkpt lat="45.01531" lon="0.55003">
        <ele>150.58</ele>
        <time>2017-04-16T12:31:53Z</time>
      </trkpt>
      <trkpt lat="45.01487" lon="0.55116">
        <ele>156.83</ele>
        <time>2017-04-16T12:33:56Z</time>
      </trkpt>
      <trkpt lat="45.0138" lon="0.55116">
        <ele>157.79</ele>
        <time>2017-04-16T12:36:21Z</time>
      </trkpt>
      <trkpt lat="45.01261" lon="0.55049">
        <ele>164.52</ele>
        <time>2017-04-16T12:38:18Z</time>
      </trkpt>
      <trkpt lat="45.01149" lon="0.55113">
        <ele>167.41</ele>
        <time>2017-04-16T12:39:51Z</time>
      </trkpt>
      <trkpt lat="45.01032" lon="0.5512">
        <ele>175.58</ele>
        <time>2017-04-16T12:42:39Z</time>
      </trkpt>
      <trkpt lat="45.00933" lon="0.55206">
        <ele>186.15</ele>
        <time>2017-04-16T12:45:05Z</time>
      </trkpt>
      <trkpt lat="45.0084" lon="0.55231">
        <ele>188.56</ele>
        <time>2017-04-16T12:50:11Z</time>
      </trkpt>
      <trkpt lat="45.00743" lon="0.55137">
        <ele>184.23</ele>
        <time>2017-04-16T12:52:01Z</time>
      </trkpt>
      <trkpt lat="45.00645" lon="0.54957">
        <ele>177.5</ele>
        <time>2017-04-16T12:54:02Z</time>
      </trkpt>
      <trkpt lat="45.00537" lon="0.54744">
        <ele>176.06</ele>
        <time>2017-04-16T12:56:46Z</time>
      </trkpt>
      <trkpt lat="45.00468" lon="0.54546">
        <ele>174.62</ele>
        <time>2017-04-16T12:59:17Z</time>
      </trkpt>
      <trkpt lat="45.00406" lon="0.54373">
        <ele>175.1</ele>
        <time>2017-04-16T13:00:52Z</time>
      </trkpt>
      <trkpt lat="45.00305" lon="0.5422">
        <ele>172.21</ele>
        <time>2017-04-16T13:03:14Z</time>
      </trkpt>
      <trkpt lat="45.00203" lon="0.54052">
        <ele>173.17</ele>
        <time>2017-04-16T13:11:20Z</time>
      </trkpt>
      <trkpt lat="45.00172" lon="0.53877">
        <ele>167.89</ele>
        <time>2017-04-16T13:15:39Z</time>
      </trkpt>
      <trkpt lat="45.00106" lon="0.5367">
        <ele>165.96</ele>
        <time>2017-04-16T13:19:25Z</time>
      </trkpt>
      <trkpt lat="44.9998" lon="0.53532">
        <ele>164.04</ele>
        <time>2017-04-16T13:23:54Z</time>
      </trkpt>
      <trkpt lat="44.99954" lon="0.53337">
        <ele>152.03</ele>
        <time>2017-04-16T13:25:40Z</time>
      </trkpt>
      <trkpt lat="44.99911" lon="0.53233">
        <ele>143.37</ele>
        <time>2017-04-16T13:27:18Z</time>
      </trkpt>
      <trkpt lat="44.99851" lon="0.53153">
        <ele>135.68</ele>
        <time>2017-04-16T13:28:29Z</time>
      </trkpt>
      <trkpt lat="44.99753" lon="0.53126">
        <ele>133.28</ele>
        <time>2017-04-16T13:30:04Z</time>
      </trkpt>
      <trkpt lat="44.99657" lon="0.53131">
        <ele>126.55</ele>
        <time>2017-04-16T13:31:24Z</time>
      </trkpt>
      <trkpt lat="44.99609" lon="0.53107">
        <ele>117.9</ele>
        <time>2017-04-16T13:33:34Z</time>
      </trkpt>
      <trkpt lat="44.99616" lon="0.52965">
        <ele>109.25</ele>
        <time>2017-04-16T13:34:56Z</time>
      </trkpt>
      <trkpt lat="44.99602" lon="0.52827">
        <ele>101.08</ele>
        <time>2017-04-16T13:36:16Z</time>
      </trkpt>
      <trkpt lat="44.99659" lon="0.52741">
        <ele>104.44</ele>
        <time>2017-04-16T13:40:29Z</time>
      </trkpt>
      <trkpt lat="44.99745" lon="0.52697">
        <ele>113.57</ele>
        <time>2017-04-16T13:41:48Z</time>
      </trkpt>
      <trkpt lat="44.99836" lon="0.5269">
        <ele>112.13</ele>
        <time>2017-04-16T13:43:04Z</time>
      </trkpt>
      <trkpt lat="44.99939" lon="0.52743">
        <ele>104.92</ele>
        <time>2017-04-16T13:44:30Z</time>
      </trkpt>
      <trkpt lat="45.00052" lon="0.52719">
        <ele>111.65</ele>
        <time>2017-04-16T13:46:51Z</time>
      </trkpt>
      <trkpt lat="45.00212" lon="0.52668">
        <ele>118.86</ele>
        <time>2017-04-16T13:49:07Z</time>
      </trkpt>
      <trkpt lat="45.004" lon="0.52678">
        <ele>127.51</ele>
        <time>2017-04-16T13:51:33Z</time>
      </trkpt>
      <trkpt lat="45.00484" lon="0.52787">
        <ele>127.51</ele>
        <time>2017-04-16T13:55:37Z</time>
      </trkpt>
      <trkpt lat="45.00564" lon="0.52898">
        <ele>130.88</ele>
        <time>2017-04-16T13:57:03Z</time>
      </trkpt>
      <trkpt lat="45.00658" lon="0.52935">
        <ele>130.4</ele>
        <time>2017-04-16T13:58:54Z</time>
      </trkpt>
      <trkpt lat="45.00789" lon="0.53057">
        <ele>121.74</ele>
        <time>2017-04-16T14:01:11Z</time>
      </trkpt>
      <trkpt lat="45.00939" lon="0.5317">
        <ele>112.61</ele>
        <time>2017-04-16T14:03:08Z</time>
      </trkpt>
      <trkpt lat="45.01022" lon="0.53235">
        <ele>111.17</ele>
        <time>2017-04-16T14:04:20Z</time>
      </trkpt>
      <trkpt lat="45.0111" lon="0.53298">
        <ele>108.77</ele>
        <time>2017-04-16T14:06:53Z</time>
      </trkpt>
      <trkpt lat="45.01191" lon="0.53391">
        <ele>111.17</ele>
        <time>2017-04-16T14:18:49Z</time>
      </trkpt>
      <trkpt lat="45.01269" lon="0.53486">
        <ele>109.73</ele>
        <time>2017-04-16T14:20:09Z</time>
      </trkpt>
      <trkpt lat="45.01395" lon="0.53557">
        <ele>110.69</ele>
        <time>2017-04-16T14:21:52Z</time>
      </trkpt>
      <trkpt lat="45.01505" lon="0.53601">
        <ele>112.61</ele>
        <time>2017-04-16T14:23:18Z</time>
      </trkpt>
      <trkpt lat="45.01596" lon="0.53643">
        <ele>113.57</ele>
        <time>2017-04-16T15:02:11Z</time>
      </trkpt>
      <trkpt lat="45.01696" lon="0.53723">
        <ele>115.98</ele>
        <time>2017-04-16T15:03:42Z</time>
      </trkpt>
      <trkpt lat="45.01777" lon="0.53815">
        <ele>114.53</ele>
        <time>2017-04-16T15:05:05Z</time>
      </trkpt>
      <trkpt lat="45.01876" lon="0.53851">
        <ele>111.65</ele>
        <time>2017-04-16T15:06:30Z</time>
      </trkpt>
      <trkpt lat="45.01977" lon="0.53811">
        <ele>113.57</ele>
        <time>2017-04-16T15:07:49Z</time>
      </trkpt>
      <trkpt lat="45.0203" lon="0.5394">
        <ele>116.46</ele>
        <time>2017-04-16T15:09:32Z</time>
      </trkpt>
      <trkpt lat="45.02115" lon="0.53994">
        <ele>122.22</ele>
        <time>2017-04-16T15:11:13Z</time>
      </trkpt>
      <trkpt lat="45.02195" lon="0.54079">
        <ele>125.11</ele>
        <time>2017-04-16T15:12:54Z</time>
      </trkpt>
      <trkpt lat="45.0229" lon="0.54053">
        <ele>131.36</ele>
        <time>2017-04-16T15:15:07Z</time>
      </trkpt>
      <trkpt lat="45.0229" lon="0.54053">
        <ele>131.36</ele>
        <time>2017-04-16T15:15:15Z</time>
      </trkpt>
    </trkseg>
  </trk>
</gpx>